sensor_id;sensor_type;location;lat;lon;timestamp;pressure;altitude;pressure_sealevel;temperature;humidity
66703;BME280;60933;46.398;-63.798;2022-11-10T00:00:50;102877.72;;;1.40;55.86
66703;BME280;60933;46.398;-63.798;2022-11-10T00:03:16;102874.66;;;1.48;56.07
66703;BME280;60933;46.398;-63.798;2022-11-10T00:05:42;102881.94;;;1.58;56.93
66703;BME280;60933;46.398;-63.798;2022-11-10T00:08:10;102871.22;;;1.65;57.19
66703;BME280;60933;46.398;-63.798;2022-11-10T00:10:38;102875.81;;;1.72;57.11
66703;BME280;60933;46.398;-63.798;2022-11-10T00:13:28;102876.88;;;1.78;55.96
66703;BME280;60933;46.398;-63.798;2022-11-10T00:15:56;102872.72;;;1.80;56.11
66703;BME280;60933;46.398;-63.798;2022-11-10T00:18:41;102886.69;;;1.88;56.61
66703;BME280;60933;46.398;-63.798;2022-11-10T00:21:09;102892.94;;;1.95;56.29
66703;BME280;60933;46.398;-63.798;2022-11-10T00:23:35;102899.19;;;2.01;56.85
66703;BME280;60933;46.398;-63.798;2022-11-10T00:26:02;102895.19;;;2.07;55.87
66703;BME280;60933;46.398;-63.798;2022-11-10T00:28:30;102886.81;;;2.09;56.16
66703;BME280;60933;46.398;-63.798;2022-11-10T00:30:57;102879.94;;;2.08;55.73
66703;BME280;60933;46.398;-63.798;2022-11-10T00:33:23;102898.91;;;2.15;56.18
66703;BME280;60933;46.398;-63.798;2022-11-10T00:35:49;102894.03;;;2.19;55.66
66703;BME280;60933;46.398;-63.798;2022-11-10T00:38:15;102899.59;;;2.30;55.56
66703;BME280;60933;46.398;-63.798;2022-11-10T00:40:42;102900.81;;;2.38;55.83
66703;BME280;60933;46.398;-63.798;2022-11-10T00:43:08;102903.78;;;2.48;54.32
66703;BME280;60933;46.398;-63.798;2022-11-10T00:45:34;102914.22;;;2.54;54.37
66703;BME280;60933;46.398;-63.798;2022-11-10T00:48:00;102908.72;;;2.64;53.11
66703;BME280;60933;46.398;-63.798;2022-11-10T00:50:26;102905.56;;;2.70;53.47
66703;BME280;60933;46.398;-63.798;2022-11-10T00:52:52;102916.09;;;2.78;53.33
66703;BME280;60933;46.398;-63.798;2022-11-10T00:55:18;102919.72;;;2.83;53.35
66703;BME280;60933;46.398;-63.798;2022-11-10T00:57:44;102928.50;;;2.90;53.17
66703;BME280;60933;46.398;-63.798;2022-11-10T01:00:10;102928.81;;;2.97;52.92
66703;BME280;60933;46.398;-63.798;2022-11-10T01:02:36;102937.69;;;3.06;52.76
66703;BME280;60933;46.398;-63.798;2022-11-10T01:05:03;102943.84;;;3.11;52.33
66703;BME280;60933;46.398;-63.798;2022-11-10T01:07:29;102947.44;;;3.16;52.34
66703;BME280;60933;46.398;-63.798;2022-11-10T01:09:56;102935.66;;;3.20;51.98
66703;BME280;60933;46.398;-63.798;2022-11-10T01:12:22;102941.78;;;3.23;51.80
66703;BME280;60933;46.398;-63.798;2022-11-10T01:14:48;102938.56;;;3.27;51.53
66703;BME280;60933;46.398;-63.798;2022-11-10T01:17:14;102929.19;;;3.28;51.51
66703;BME280;60933;46.398;-63.798;2022-11-10T01:19:41;102908.03;;;3.30;51.37
66703;BME280;60933;46.398;-63.798;2022-11-10T01:22:07;102920.13;;;3.35;51.66
66703;BME280;60933;46.398;-63.798;2022-11-10T01:24:33;102895.53;;;3.37;51.69
66703;BME280;60933;46.398;-63.798;2022-11-10T01:26:59;102910.16;;;3.41;52.87
66703;BME280;60933;46.398;-63.798;2022-11-10T01:29:25;102895.81;;;3.44;52.46
66703;BME280;60933;46.398;-63.798;2022-11-10T01:31:51;102890.84;;;3.47;52.83
66703;BME280;60933;46.398;-63.798;2022-11-10T01:34:18;102897.03;;;3.54;52.85
66703;BME280;60933;46.398;-63.798;2022-11-10T01:36:44;102894.72;;;3.60;52.76
66703;BME280;60933;46.398;-63.798;2022-11-10T01:39:10;102919.59;;;3.64;52.40
66703;BME280;60933;46.398;-63.798;2022-11-10T01:41:36;102930.84;;;3.70;52.65
66703;BME280;60933;46.398;-63.798;2022-11-10T01:44:33;102899.50;;;3.74;52.34
66703;BME280;60933;46.398;-63.798;2022-11-10T01:46:59;102891.84;;;3.74;51.79
66703;BME280;60933;46.398;-63.798;2022-11-10T01:49:27;102869.66;;;3.73;51.96
66703;BME280;60933;46.398;-63.798;2022-11-10T01:52:00;102873.88;;;3.72;52.05
66703;BME280;60933;46.398;-63.798;2022-11-10T01:54:33;102847.63;;;3.75;51.96
66703;BME280;60933;46.398;-63.798;2022-11-10T01:57:04;102841.66;;;3.76;52.13
66703;BME280;60933;46.398;-63.798;2022-11-10T01:59:35;102815.31;;;3.77;51.95
66703;BME280;60933;46.398;-63.798;2022-11-10T02:02:18;102765.38;;;3.85;51.90
66703;BME280;60933;46.398;-63.798;2022-11-10T02:04:47;102746.66;;;3.86;52.03
66703;BME280;60933;46.398;-63.798;2022-11-10T02:07:17;102731.28;;;3.85;52.14
66703;BME280;60933;46.398;-63.798;2022-11-10T02:09:43;102715.97;;;3.85;52.42
66703;BME280;60933;46.398;-63.798;2022-11-10T02:12:10;102708.47;;;3.89;52.28
66703;BME280;60933;46.398;-63.798;2022-11-10T02:14:37;102727.38;;;3.94;52.51
66703;BME280;60933;46.398;-63.798;2022-11-10T02:17:03;102737.91;;;4.04;51.86
66703;BME280;60933;46.398;-63.798;2022-11-10T02:19:29;102734.63;;;4.08;51.89
66703;BME280;60933;46.398;-63.798;2022-11-10T02:22:03;102728.91;;;4.15;51.91
66703;BME280;60933;46.398;-63.798;2022-11-10T02:24:29;102743.63;;;4.22;51.97
66703;BME280;60933;46.398;-63.798;2022-11-10T02:26:56;102737.88;;;4.28;51.71
66703;BME280;60933;46.398;-63.798;2022-11-10T02:29:23;102738.06;;;4.34;51.95
66703;BME280;60933;46.398;-63.798;2022-11-10T02:31:50;102738.13;;;4.36;52.21
66703;BME280;60933;46.398;-63.798;2022-11-10T02:34:17;102718.53;;;4.36;52.70
66703;BME280;60933;46.398;-63.798;2022-11-10T02:36:43;102734.66;;;4.34;51.89
66703;BME280;60933;46.398;-63.798;2022-11-10T02:39:09;102734.53;;;4.31;52.85
66703;BME280;60933;46.398;-63.798;2022-11-10T02:41:35;102732.75;;;4.28;52.56
66703;BME280;60933;46.398;-63.798;2022-11-10T02:44:02;102725.97;;;4.28;53.42
66703;BME280;60933;46.398;-63.798;2022-11-10T02:46:29;102731.31;;;4.36;52.32
66703;BME280;60933;46.398;-63.798;2022-11-10T02:48:55;102722.84;;;4.37;52.77
66703;BME280;60933;46.398;-63.798;2022-11-10T02:51:22;102711.81;;;4.40;52.67
66703;BME280;60933;46.398;-63.798;2022-11-10T02:53:48;102706.75;;;4.41;52.98
66703;BME280;60933;46.398;-63.798;2022-11-10T02:56:14;102702.41;;;4.39;53.12
66703;BME280;60933;46.398;-63.798;2022-11-10T02:58:40;102684.66;;;4.43;53.61
66703;BME280;60933;46.398;-63.798;2022-11-10T03:01:07;102688.34;;;4.52;53.52
66703;BME280;60933;46.398;-63.798;2022-11-10T03:03:33;102686.75;;;4.55;53.65
66703;BME280;60933;46.398;-63.798;2022-11-10T03:05:59;102691.81;;;4.54;53.36
66703;BME280;60933;46.398;-63.798;2022-11-10T03:08:25;102684.81;;;4.48;54.65
66703;BME280;60933;46.398;-63.798;2022-11-10T03:10:53;102682.06;;;4.42;55.27
66703;BME280;60933;46.398;-63.798;2022-11-10T03:13:19;102700.91;;;4.44;55.19
66703;BME280;60933;46.398;-63.798;2022-11-10T03:18:27;102694.13;;;4.46;55.02
66703;BME280;60933;46.398;-63.798;2022-11-10T03:20:53;102687.34;;;4.47;53.51
66703;BME280;60933;46.398;-63.798;2022-11-10T03:23:19;102676.22;;;4.46;55.88
66703;BME280;60933;46.398;-63.798;2022-11-10T03:25:46;102664.34;;;4.48;54.26
66703;BME280;60933;46.398;-63.798;2022-11-10T03:28:12;102661.78;;;4.48;54.79
66703;BME280;60933;46.398;-63.798;2022-11-10T03:30:38;102660.97;;;4.49;54.03
66703;BME280;60933;46.398;-63.798;2022-11-10T03:33:05;102643.84;;;4.47;54.21
66703;BME280;60933;46.398;-63.798;2022-11-10T03:35:31;102637.84;;;4.46;54.79
66703;BME280;60933;46.398;-63.798;2022-11-10T03:37:57;102626.84;;;4.49;54.47
66703;BME280;60933;46.398;-63.798;2022-11-10T03:40:23;102600.59;;;4.54;54.38
66703;BME280;60933;46.398;-63.798;2022-11-10T03:42:49;102592.16;;;4.57;53.40
66703;BME280;60933;46.398;-63.798;2022-11-10T03:45:15;102590.34;;;4.53;54.31
66703;BME280;60933;46.398;-63.798;2022-11-10T03:47:46;102585.34;;;4.57;54.17
66703;BME280;60933;46.398;-63.798;2022-11-10T03:50:13;102591.31;;;4.58;52.90
66703;BME280;60933;46.398;-63.798;2022-11-10T03:52:41;102597.25;;;4.57;54.26
66703;BME280;60933;46.398;-63.798;2022-11-10T03:55:12;102600.78;;;4.60;54.69
66703;BME280;60933;46.398;-63.798;2022-11-10T03:57:39;102601.41;;;4.53;53.84
66703;BME280;60933;46.398;-63.798;2022-11-10T04:00:06;102609.97;;;4.54;55.74
66703;BME280;60933;46.398;-63.798;2022-11-10T04:02:34;102603.91;;;4.50;54.40
66703;BME280;60933;46.398;-63.798;2022-11-10T04:05:01;102599.00;;;4.58;54.62
66703;BME280;60933;46.398;-63.798;2022-11-10T04:07:45;102586.19;;;4.56;53.43
66703;BME280;60933;46.398;-63.798;2022-11-10T04:10:29;102577.66;;;4.56;52.88
66703;BME280;60933;46.398;-63.798;2022-11-10T04:12:55;102580.25;;;4.57;52.69
66703;BME280;60933;46.398;-63.798;2022-11-10T04:15:40;102576.75;;;4.55;53.59
66703;BME280;60933;46.398;-63.798;2022-11-10T04:18:10;102567.34;;;4.54;54.88
66703;BME280;60933;46.398;-63.798;2022-11-10T04:20:46;102551.22;;;4.57;53.30
66703;BME280;60933;46.398;-63.798;2022-11-10T04:23:13;102533.41;;;4.60;53.22
66703;BME280;60933;46.398;-63.798;2022-11-10T04:28:45;102520.44;;;4.84;52.40
66703;BME280;60933;46.398;-63.798;2022-11-10T04:31:12;102521.34;;;4.86;52.09
66703;BME280;60933;46.398;-63.798;2022-11-10T04:33:39;102502.53;;;4.84;51.99
66703;BME280;60933;46.398;-63.798;2022-11-10T04:36:07;102502.47;;;4.81;52.37
66703;BME280;60933;46.398;-63.798;2022-11-10T04:38:34;102492.09;;;4.77;51.68
66703;BME280;60933;46.398;-63.798;2022-11-10T04:41:01;102510.84;;;4.77;53.20
66703;BME280;60933;46.398;-63.798;2022-11-10T04:43:27;102540.84;;;4.81;52.07
66703;BME280;60933;46.398;-63.798;2022-11-10T04:45:53;102526.03;;;4.71;51.90
66703;BME280;60933;46.398;-63.798;2022-11-10T04:48:19;102534.63;;;4.73;53.11
66703;BME280;60933;46.398;-63.798;2022-11-10T04:50:45;102521.88;;;4.74;53.34
66703;BME280;60933;46.398;-63.798;2022-11-10T04:53:11;102537.88;;;4.67;53.57
66703;BME280;60933;46.398;-63.798;2022-11-10T04:55:39;102526.78;;;4.67;53.93
66703;BME280;60933;46.398;-63.798;2022-11-10T04:58:05;102540.72;;;4.77;53.32
66703;BME280;60933;46.398;-63.798;2022-11-10T05:00:32;102523.38;;;4.68;52.97
66703;BME280;60933;46.398;-63.798;2022-11-10T05:03:02;102539.59;;;4.67;53.16
66703;BME280;60933;46.398;-63.798;2022-11-10T05:05:29;102523.63;;;4.75;53.33
66703;BME280;60933;46.398;-63.798;2022-11-10T05:07:55;102514.25;;;4.76;53.51
66703;BME280;60933;46.398;-63.798;2022-11-10T05:10:21;102509.13;;;4.76;53.35
66703;BME280;60933;46.398;-63.798;2022-11-10T05:12:47;102502.31;;;4.75;53.35
66703;BME280;60933;46.398;-63.798;2022-11-10T05:15:13;102506.56;;;4.76;53.85
66703;BME280;60933;46.398;-63.798;2022-11-10T05:17:39;102510.84;;;4.77;53.15
66703;BME280;60933;46.398;-63.798;2022-11-10T05:20:06;102509.13;;;4.76;53.00
66703;BME280;60933;46.398;-63.798;2022-11-10T05:22:32;102500.56;;;4.74;52.38
66703;BME280;60933;46.398;-63.798;2022-11-10T05:24:58;102498.13;;;4.79;53.55
66703;BME280;60933;46.398;-63.798;2022-11-10T05:27:25;102506.66;;;4.79;53.65
66703;BME280;60933;46.398;-63.798;2022-11-10T05:29:51;102500.56;;;4.74;54.44
66703;BME280;60933;46.398;-63.798;2022-11-10T05:32:17;102481.84;;;4.75;54.92
66703;BME280;60933;46.398;-63.798;2022-11-10T05:34:43;102458.19;;;4.85;54.25
66703;BME280;60933;46.398;-63.798;2022-11-10T05:37:09;102428.31;;;4.84;54.35
66703;BME280;60933;46.398;-63.798;2022-11-10T05:39:35;102422.53;;;4.91;53.86
66703;BME280;60933;46.398;-63.798;2022-11-10T05:42:01;102406.28;;;4.89;53.43
66703;BME280;60933;46.398;-63.798;2022-11-10T05:44:27;102423.44;;;4.94;53.68
66703;BME280;60933;46.398;-63.798;2022-11-10T05:46:53;102429.53;;;4.99;52.83
66703;BME280;60933;46.398;-63.798;2022-11-10T05:49:19;102400.41;;;4.94;53.25
66703;BME280;60933;46.398;-63.798;2022-11-10T05:51:46;102409.91;;;4.98;53.28
66703;BME280;60933;46.398;-63.798;2022-11-10T05:54:12;102369.13;;;5.04;53.94
66703;BME280;60933;46.398;-63.798;2022-11-10T05:56:38;102352.03;;;5.04;53.66
66703;BME280;60933;46.398;-63.798;2022-11-10T05:59:04;102355.53;;;5.08;53.44
66703;BME280;60933;46.398;-63.798;2022-11-10T06:01:30;102378.72;;;5.14;52.92
66703;BME280;60933;46.398;-63.798;2022-11-10T06:03:56;102372.03;;;5.19;52.69
66703;BME280;60933;46.398;-63.798;2022-11-10T06:06:22;102371.38;;;5.28;51.20
66703;BME280;60933;46.398;-63.798;2022-11-10T06:08:48;102385.88;;;5.28;51.82
66703;BME280;60933;46.398;-63.798;2022-11-10T06:11:15;102373.13;;;5.31;51.42
66703;BME280;60933;46.398;-63.798;2022-11-10T06:13:41;102372.31;;;5.32;50.43
66703;BME280;60933;46.398;-63.798;2022-11-10T06:16:07;102351.13;;;5.39;51.43
66703;BME280;60933;46.398;-63.798;2022-11-10T06:18:33;102346.13;;;5.44;52.50
66703;BME280;60933;46.398;-63.798;2022-11-10T06:20:59;102341.81;;;5.41;52.94
66703;BME280;60933;46.398;-63.798;2022-11-10T06:23:25;102331.44;;;5.36;52.96
66703;BME280;60933;46.398;-63.798;2022-11-10T06:25:51;102346.78;;;5.35;53.95
66703;BME280;60933;46.398;-63.798;2022-11-10T06:28:17;102346.78;;;5.35;54.42
66703;BME280;60933;46.398;-63.798;2022-11-10T06:30:43;102322.97;;;5.39;54.80
66703;BME280;60933;46.398;-63.798;2022-11-10T06:33:09;102327.38;;;5.45;54.76
66703;BME280;60933;46.398;-63.798;2022-11-10T06:35:35;102318.78;;;5.43;55.16
66703;BME280;60933;46.398;-63.798;2022-11-10T06:38:04;102312.72;;;5.39;55.79
66703;BME280;60933;46.398;-63.798;2022-11-10T06:40:32;102311.06;;;5.41;55.88
66703;BME280;60933;46.398;-63.798;2022-11-10T06:42:58;102306.66;;;5.35;56.14
66703;BME280;60933;46.398;-63.798;2022-11-10T06:45:25;102307.50;;;5.34;57.08
66703;BME280;60933;46.398;-63.798;2022-11-10T06:48:04;102298.06;;;5.32;56.46
66703;BME280;60933;46.398;-63.798;2022-11-10T06:50:30;102265.50;;;5.26;56.19
66703;BME280;60933;46.398;-63.798;2022-11-10T06:52:58;102278.25;;;5.23;56.94
66703;BME280;60933;46.398;-63.798;2022-11-10T06:55:25;102272.19;;;5.19;58.47
66703;BME280;60933;46.398;-63.798;2022-11-10T06:57:51;102255.84;;;5.14;57.63
66703;BME280;60933;46.398;-63.798;2022-11-10T07:00:17;102241.41;;;5.18;57.99
66703;BME280;60933;46.398;-63.798;2022-11-10T07:02:43;102221.00;;;5.21;57.77
66703;BME280;60933;46.398;-63.798;2022-11-10T07:05:10;102209.13;;;5.23;57.84
66703;BME280;60933;46.398;-63.798;2022-11-10T07:07:36;102219.38;;;5.25;58.64
66703;BME280;60933;46.398;-63.798;2022-11-10T07:10:02;102212.56;;;5.25;58.81
66703;BME280;60933;46.398;-63.798;2022-11-10T07:12:28;102186.81;;;5.19;58.99
66703;BME280;60933;46.398;-63.798;2022-11-10T07:14:54;102193.69;;;5.21;60.58
66703;BME280;60933;46.398;-63.798;2022-11-10T07:17:20;102163.84;;;5.20;61.27
66703;BME280;60933;46.398;-63.798;2022-11-10T07:19:47;102178.41;;;5.23;61.35
66703;BME280;60933;46.398;-63.798;2022-11-10T07:22:13;102169.91;;;5.26;61.38
66703;BME280;60933;46.398;-63.798;2022-11-10T07:24:39;102160.59;;;5.31;60.26
66703;BME280;60933;46.398;-63.798;2022-11-10T07:27:05;102159.88;;;5.36;59.70
66703;BME280;60933;46.398;-63.798;2022-11-10T07:29:32;102145.50;;;5.43;59.14
66703;BME280;60933;46.398;-63.798;2022-11-10T07:31:58;102136.13;;;5.44;61.21
66703;BME280;60933;46.398;-63.798;2022-11-10T07:34:25;102129.34;;;5.47;59.57
66703;BME280;60933;46.398;-63.798;2022-11-10T07:36:51;102108.78;;;5.44;62.57
66703;BME280;60933;46.398;-63.798;2022-11-10T07:39:17;102111.25;;;5.38;63.87
66703;BME280;60933;46.398;-63.798;2022-11-10T07:41:43;102092.50;;;5.41;61.71
66703;BME280;60933;46.398;-63.798;2022-11-10T07:44:09;102093.38;;;5.39;61.68
66703;BME280;60933;46.398;-63.798;2022-11-10T07:46:35;102084.88;;;5.42;62.10
66703;BME280;60933;46.398;-63.798;2022-11-10T07:49:01;102086.63;;;5.46;62.01
66703;BME280;60933;46.398;-63.798;2022-11-10T07:51:27;102092.69;;;5.50;64.26
66703;BME280;60933;46.398;-63.798;2022-11-10T07:53:55;102085.88;;;5.50;62.55
66703;BME280;60933;46.398;-63.798;2022-11-10T07:56:21;102092.75;;;5.54;62.70
66703;BME280;60933;46.398;-63.798;2022-11-10T07:58:47;102080.94;;;5.63;61.77
66703;BME280;60933;46.398;-63.798;2022-11-10T08:01:13;102069.13;;;5.71;62.17
66703;BME280;60933;46.398;-63.798;2022-11-10T08:03:39;102060.72;;;5.78;62.76
66703;BME280;60933;46.398;-63.798;2022-11-10T08:06:06;102079.66;;;5.88;62.51
66703;BME280;60933;46.398;-63.798;2022-11-10T08:08:32;102077.16;;;5.90;63.63
66703;BME280;60933;46.398;-63.798;2022-11-10T08:10:58;102079.84;;;5.99;63.98
66703;BME280;60933;46.398;-63.798;2022-11-10T08:13:24;102059.50;;;6.08;62.36
66703;BME280;60933;46.398;-63.798;2022-11-10T08:15:50;102073.31;;;6.18;62.93
66703;BME280;60933;46.398;-63.798;2022-11-10T08:18:19;102076.69;;;6.15;66.64
66703;BME280;60933;46.398;-63.798;2022-11-10T08:20:45;102075.78;;;6.12;67.42
66703;BME280;60933;46.398;-63.798;2022-11-10T08:23:12;102072.44;;;6.16;66.50
66703;BME280;60933;46.398;-63.798;2022-11-10T08:25:38;102048.63;;;6.25;64.12
66703;BME280;60933;46.398;-63.798;2022-11-10T08:28:07;102043.56;;;6.28;65.73
66703;BME280;60933;46.398;-63.798;2022-11-10T08:30:35;102040.19;;;6.32;67.04
66703;BME280;60933;46.398;-63.798;2022-11-10T08:33:03;102057.44;;;6.44;64.82
66703;BME280;60933;46.398;-63.798;2022-11-10T08:35:31;102063.41;;;6.43;68.97
66703;BME280;60933;46.398;-63.798;2022-11-10T08:38:22;102062.50;;;6.38;69.46
66703;BME280;60933;46.398;-63.798;2022-11-10T08:40:49;102054.78;;;6.38;69.41
66703;BME280;60933;46.398;-63.798;2022-11-10T08:43:16;102056.59;;;6.43;67.76
66703;BME280;60933;46.398;-63.798;2022-11-10T08:45:43;102023.25;;;6.43;69.08
66703;BME280;60933;46.398;-63.798;2022-11-10T08:48:12;102034.47;;;6.53;66.95
66703;BME280;60933;46.398;-63.798;2022-11-10T08:50:39;102013.13;;;6.57;67.06
66703;BME280;60933;46.398;-63.798;2022-11-10T08:53:10;102015.75;;;6.59;66.59
66703;BME280;60933;46.398;-63.798;2022-11-10T08:55:36;102001.25;;;6.65;65.77
66703;BME280;60933;46.398;-63.798;2022-11-10T08:58:03;102010.75;;;6.73;65.57
66703;BME280;60933;46.398;-63.798;2022-11-10T09:00:31;101987.66;;;6.71;66.90
66703;BME280;60933;46.398;-63.798;2022-11-10T09:03:06;101970.56;;;6.73;66.23
66703;BME280;60933;46.398;-63.798;2022-11-10T09:05:34;101990.28;;;6.77;66.02
66703;BME280;60933;46.398;-63.798;2022-11-10T09:08:01;101974.94;;;6.82;65.71
66703;BME280;60933;46.398;-63.798;2022-11-10T09:10:29;101973.25;;;6.86;68.40
66703;BME280;60933;46.398;-63.798;2022-11-10T09:12:58;101974.16;;;6.88;69.93
66703;BME280;60933;46.398;-63.798;2022-11-10T09:15:26;101974.16;;;6.91;69.46
66703;BME280;60933;46.398;-63.798;2022-11-10T09:17:52;101981.06;;;6.98;67.84
66703;BME280;60933;46.398;-63.798;2022-11-10T09:20:19;101989.66;;;7.02;69.55
66703;BME280;60933;46.398;-63.798;2022-11-10T09:22:45;101970.91;;;7.06;70.06
66703;BME280;60933;46.398;-63.798;2022-11-10T09:25:11;101976.09;;;7.13;70.14
66703;BME280;60933;46.398;-63.798;2022-11-10T09:27:37;102003.53;;;7.21;71.00
66703;BME280;60933;46.398;-63.798;2022-11-10T09:30:04;101971.88;;;7.22;70.22
66703;BME280;60933;46.398;-63.798;2022-11-10T09:32:31;101968.47;;;7.20;70.26
66703;BME280;60933;46.398;-63.798;2022-11-10T09:34:58;101984.75;;;7.25;70.51
66703;BME280;60933;46.398;-63.798;2022-11-10T09:37:24;101989.91;;;7.26;70.80
66703;BME280;60933;46.398;-63.798;2022-11-10T09:39:50;102011.34;;;7.28;70.41
66703;BME280;60933;46.398;-63.798;2022-11-10T09:42:26;101999.38;;;7.34;69.12
66703;BME280;60933;46.398;-63.798;2022-11-10T09:45:16;102012.25;;;7.35;69.88
66703;BME280;60933;46.398;-63.798;2022-11-10T09:50:17;101998.53;;;7.35;68.86
66703;BME280;60933;46.398;-63.798;2022-11-10T09:52:48;101992.56;;;7.34;69.32
66703;BME280;60933;46.398;-63.798;2022-11-10T09:55:42;101995.97;;;7.33;68.86
66703;BME280;60933;46.398;-63.798;2022-11-10T09:58:12;101985.69;;;7.33;69.01
66703;BME280;60933;46.398;-63.798;2022-11-10T10:00:40;101961.66;;;7.28;69.62
66703;BME280;60933;46.398;-63.798;2022-11-10T10:03:14;101942.81;;;7.26;69.33
66703;BME280;60933;46.398;-63.798;2022-11-10T10:06:08;101952.22;;;7.24;69.18
66703;BME280;60933;46.398;-63.798;2022-11-10T10:08:41;101940.25;;;7.26;67.67
66703;BME280;60933;46.398;-63.798;2022-11-10T10:19:48;101924.84;;;7.29;67.04
66703;BME280;60933;46.398;-63.798;2022-11-10T10:22:51;101909.44;;;7.29;66.56
66703;BME280;60933;46.398;-63.798;2022-11-10T10:25:22;101926.56;;;7.30;66.75
66703;BME280;60933;46.398;-63.798;2022-11-10T10:27:59;101925.72;;;7.29;66.88
66703;BME280;60933;46.398;-63.798;2022-11-10T10:30:29;101917.16;;;7.29;66.96
66703;BME280;60933;46.398;-63.798;2022-11-10T10:33:04;101906.06;;;7.32;66.98
66703;BME280;60933;46.398;-63.798;2022-11-10T10:35:35;101904.34;;;7.32;67.15
66703;BME280;60933;46.398;-63.798;2022-11-10T10:38:03;101902.63;;;7.31;66.97
66703;BME280;60933;46.398;-63.798;2022-11-10T10:40:34;101893.22;;;7.36;66.95
66703;BME280;60933;46.398;-63.798;2022-11-10T10:43:00;101922.38;;;7.38;66.88
66703;BME280;60933;46.398;-63.798;2022-11-10T10:45:28;101904.34;;;7.34;66.57
66703;BME280;60933;46.398;-63.798;2022-11-10T10:47:56;101905.25;;;7.43;67.76
66703;BME280;60933;46.398;-63.798;2022-11-10T10:50:34;101911.28;;;7.42;67.58
66703;BME280;60933;46.398;-63.798;2022-11-10T10:55:34;101907.88;;;7.47;66.72
66703;BME280;60933;46.398;-63.798;2022-11-10T10:58:24;101919.88;;;7.48;67.03
66703;BME280;60933;46.398;-63.798;2022-11-10T11:00:54;101903.59;;;7.49;66.99
66703;BME280;60933;46.398;-63.798;2022-11-10T11:03:23;101883.03;;;7.47;68.46
66703;BME280;60933;46.398;-63.798;2022-11-10T11:06:02;101897.56;;;7.43;68.78
66703;BME280;60933;46.398;-63.798;2022-11-10T11:08:28;101915.53;;;7.42;68.47
66703;BME280;60933;46.398;-63.798;2022-11-10T11:10:54;101907.81;;;7.40;69.09
66703;BME280;60933;46.398;-63.798;2022-11-10T11:13:23;101899.25;;;7.37;69.20
66703;BME280;60933;46.398;-63.798;2022-11-10T11:15:57;101876.13;;;7.35;69.79
66703;BME280;60933;46.398;-63.798;2022-11-10T11:18:26;101877.81;;;7.33;69.55
66703;BME280;60933;46.398;-63.798;2022-11-10T11:21:16;101866.69;;;7.34;70.13
66703;BME280;60933;46.398;-63.798;2022-11-10T11:34:55;101857.31;;;7.45;69.32
66703;BME280;60933;46.398;-63.798;2022-11-10T11:37:27;101880.47;;;7.50;69.55
66703;BME280;60933;46.398;-63.798;2022-11-10T11:40:18;101862.50;;;7.52;69.23
66703;BME280;60933;46.398;-63.798;2022-11-10T11:43:48;101858.22;;;7.49;71.01
66703;BME280;60933;46.398;-63.798;2022-11-10T11:46:15;101860.81;;;7.54;70.71
66703;BME280;60933;46.398;-63.798;2022-11-10T11:51:58;101841.13;;;7.57;71.31
66703;BME280;60933;46.398;-63.798;2022-11-10T11:54:37;101830.84;;;7.59;71.49
66703;BME280;60933;46.398;-63.798;2022-11-10T12:00:12;101845.41;;;7.60;71.86
66703;BME280;60933;46.398;-63.798;2022-11-10T12:08:05;101860.00;;;7.64;72.33
66703;BME280;60933;46.398;-63.798;2022-11-10T12:14:02;101860.84;;;7.58;73.47
66703;BME280;60933;46.398;-63.798;2022-11-10T12:16:33;101860.84;;;7.57;74.42
66703;BME280;60933;46.398;-63.798;2022-11-10T12:19:24;101859.09;;;7.59;74.39
66703;BME280;60933;46.398;-63.798;2022-11-10T12:21:55;101849.72;;;7.59;74.62
66703;BME280;60933;46.398;-63.798;2022-11-10T12:27:02;101831.72;;;7.59;74.91
66703;BME280;60933;46.398;-63.798;2022-11-10T12:29:43;101835.13;;;7.60;75.17
66703;BME280;60933;46.398;-63.798;2022-11-10T12:40:47;101806.03;;;7.59;75.30
66703;BME280;60933;46.398;-63.798;2022-11-10T12:43:24;101812.91;;;7.68;75.14
66703;BME280;60933;46.398;-63.798;2022-11-10T12:45:55;101831.78;;;7.76;74.51
66703;BME280;60933;46.398;-63.798;2022-11-10T12:48:23;101828.38;;;7.79;75.70
66703;BME280;60933;46.398;-63.798;2022-11-10T12:50:57;101826.66;;;7.83;75.54
66703;BME280;60933;46.398;-63.798;2022-11-10T12:53:30;101812.13;;;7.85;75.37
66703;BME280;60933;46.398;-63.798;2022-11-10T12:56:12;101814.69;;;7.85;74.76
66703;BME280;60933;46.398;-63.798;2022-11-10T12:58:40;101821.56;;;7.89;75.40
66703;BME280;60933;46.398;-63.798;2022-11-10T13:01:14;101821.56;;;7.89;75.15
66703;BME280;60933;46.398;-63.798;2022-11-10T13:03:58;101808.75;;;7.95;75.48
66703;BME280;60933;46.398;-63.798;2022-11-10T13:06:31;101795.88;;;7.95;75.80
66703;BME280;60933;46.398;-63.798;2022-11-10T13:08:58;101801.00;;;7.98;75.92
66703;BME280;60933;46.398;-63.798;2022-11-10T13:11:35;101793.31;;;8.00;75.34
66703;BME280;60933;46.398;-63.798;2022-11-10T13:14:03;101771.03;;;8.02;76.33
66703;BME280;60933;46.398;-63.798;2022-11-10T13:19:44;101769.34;;;8.02;76.79
66703;BME280;60933;46.398;-63.798;2022-11-10T13:22:11;101803.63;;;8.07;75.64
66703;BME280;60933;46.398;-63.798;2022-11-10T13:27:56;101771.91;;;8.16;76.10
66703;BME280;60933;46.398;-63.798;2022-11-10T13:30:44;101778.78;;;8.19;75.99
66703;BME280;60933;46.398;-63.798;2022-11-10T13:33:34;101777.91;;;8.20;75.86
66703;BME280;60933;46.398;-63.798;2022-11-10T13:36:00;101761.63;;;8.21;75.71
66703;BME280;60933;46.398;-63.798;2022-11-10T13:43:55;101760.81;;;8.23;76.32
66703;BME280;60933;46.398;-63.798;2022-11-10T13:46:34;101764.22;;;8.24;76.80
66703;BME280;60933;46.398;-63.798;2022-11-10T13:52:09;101759.91;;;8.20;77.48
66703;BME280;60933;46.398;-63.798;2022-11-10T13:59:58;101766.78;;;8.18;77.31
66703;BME280;60933;46.398;-63.798;2022-11-10T14:05:08;101771.94;;;8.18;77.72
66703;BME280;60933;46.398;-63.798;2022-11-10T14:08:14;101766.78;;;8.18;77.63
66703;BME280;60933;46.398;-63.798;2022-11-10T14:13:51;101753.06;;;8.19;78.76